createdAt,value
2022-12-18T00:00:24.417Z,38.97
2022-12-18T00:05:26.425Z,41.08
2022-12-18T00:10:29.573Z,39.05
2022-12-18T00:15:31.570Z,35.97
2022-12-18T00:20:38.191Z,38.28
2022-12-18T00:25:40.241Z,34.70
2022-12-18T00:30:42.768Z,35.67
2022-12-18T00:35:44.779Z,33.85
2022-12-18T00:40:46.782Z,38.47
2022-12-18T00:45:48.859Z,35.07
2022-12-18T00:50:51.910Z,39.63
2022-12-18T00:55:53.926Z,43.08
2022-12-18T01:00:55.967Z,40.53
2022-12-18T01:05:57.982Z,31.67
2022-12-18T01:11:00.015Z,35.38
2022-12-18T01:16:02.274Z,39.42
2022-12-18T01:21:13.768Z,40.87
2022-12-18T01:26:17.271Z,37.47
2022-12-18T01:31:23.451Z,36.70
2022-12-18T01:36:29.321Z,35.40
2022-12-18T01:41:52.399Z,37.90
2022-12-18T01:46:54.426Z,35.38
2022-12-18T01:51:56.502Z,33.80
2022-12-18T01:56:58.529Z,42.07
2022-12-18T02:02:01.615Z,35.63
2022-12-18T02:07:06.771Z,38.17
2022-12-18T02:12:18.702Z,36.67
2022-12-18T02:17:24.614Z,35.30
2022-12-18T02:22:35.498Z,38.33
2022-12-18T02:27:39.167Z,38.70
2022-12-18T02:32:46.148Z,33.67
2022-12-18T02:37:48.554Z,38.75
2022-12-18T02:42:50.727Z,38.38
2022-12-18T02:47:52.818Z,35.60
2022-12-18T02:53:20.754Z,34.10
2022-12-18T02:58:25.750Z,42.15
2022-12-18T03:03:45.825Z,34.87
2022-12-18T03:08:51.945Z,42.03
2022-12-18T03:13:58.240Z,39.83
2022-12-18T03:19:04.655Z,36.50
2022-12-18T03:24:10.337Z,38.37
2022-12-18T03:29:45.358Z,41.72
2022-12-18T03:34:51.879Z,40.10
2022-12-18T03:39:54.076Z,33.97
2022-12-18T03:45:09.010Z,42.03
2022-12-18T03:50:20.960Z,38.83
2022-12-18T03:55:26.399Z,38.07
2022-12-18T04:00:30.410Z,37.85
2022-12-18T04:05:36.390Z,39.10
2022-12-18T04:10:38.484Z,34.13
2022-12-18T04:15:41.273Z,35.17
2022-12-18T04:20:43.297Z,38.75
2022-12-18T04:25:45.295Z,37.58
2022-12-18T04:30:47.409Z,34.20
2022-12-18T04:35:49.928Z,33.03
2022-12-18T04:40:51.928Z,31.77
2022-12-18T04:45:53.948Z,32.57
2022-12-18T04:50:56.012Z,35.30
2022-12-18T04:56:13.266Z,36.30
2022-12-18T05:01:17.595Z,33.93
2022-12-18T05:06:19.789Z,31.40
2022-12-18T05:11:21.801Z,38.00
2022-12-18T05:16:24.062Z,44.95
2022-12-18T05:21:26.326Z,39.13
2022-12-18T05:26:28.334Z,35.20
2022-12-18T05:31:34.602Z,35.92
2022-12-18T05:36:39.634Z,36.30
2022-12-18T05:41:41.755Z,37.08
2022-12-18T05:46:44.589Z,39.85
2022-12-18T05:51:46.985Z,35.57
2022-12-18T05:56:49.175Z,39.43
2022-12-18T06:01:51.378Z,37.30
2022-12-18T06:06:53.470Z,35.92
2022-12-18T06:11:55.469Z,38.80
2022-12-18T06:16:57.597Z,35.90
2022-12-18T06:21:59.969Z,41.95
2022-12-18T06:27:01.947Z,30.83
2022-12-18T06:32:04.146Z,32.10
2022-12-18T06:37:06.177Z,38.42
2022-12-18T06:42:08.220Z,36.73
2022-12-18T06:47:10.578Z,37.07
2022-12-18T06:52:12.825Z,31.67
2022-12-18T06:57:14.886Z,40.53
2022-12-18T07:02:17.154Z,41.80
2022-12-18T07:07:19.345Z,32.08
2022-12-18T07:12:21.349Z,37.70
2022-12-18T07:17:23.393Z,38.03
2022-12-18T07:22:26.783Z,35.80
2022-12-18T07:27:28.835Z,35.83
2022-12-18T07:32:31.571Z,43.37
2022-12-18T07:37:33.975Z,39.07
2022-12-18T07:42:37.084Z,41.33
2022-12-18T07:47:39.205Z,39.40
2022-12-18T07:52:41.242Z,37.97
2022-12-18T07:57:53.301Z,40.70
2022-12-18T08:02:57.886Z,37.58
2022-12-18T08:07:59.941Z,39.23
2022-12-18T08:13:05.148Z,34.22
2022-12-18T08:18:12.704Z,35.17
2022-12-18T08:23:16.240Z,38.90
2022-12-18T08:28:18.594Z,34.20
2022-12-18T08:33:20.681Z,34.28
2022-12-18T08:38:24.262Z,34.78
2022-12-18T08:43:44.561Z,37.97
2022-12-18T08:48:47.346Z,39.33
2022-12-18T08:53:49.430Z,34.50
2022-12-18T08:58:55.571Z,35.70
2022-12-18T09:03:57.610Z,38.35
2022-12-18T09:08:59.759Z,40.67
2022-12-18T09:14:02.976Z,38.90
2022-12-18T09:19:05.776Z,41.17
2022-12-18T09:24:14.387Z,39.33
2022-12-18T09:29:18.756Z,40.67
2022-12-18T09:34:22.892Z,39.77
2022-12-18T09:39:25.134Z,41.17
2022-12-18T09:44:47.051Z,36.47
2022-12-18T09:49:53.826Z,39.53
2022-12-18T09:55:05.275Z,40.12
2022-12-18T10:00:20.046Z,38.22
2022-12-18T10:05:36.857Z,42.33
2022-12-18T10:10:49.636Z,37.43
2022-12-18T10:16:11.711Z,37.67
2022-12-18T10:21:20.837Z,36.33
2022-12-18T10:26:23.050Z,37.80
2022-12-18T10:31:25.737Z,38.67
2022-12-18T10:36:27.917Z,35.25
2022-12-18T10:41:31.860Z,37.93
2022-12-18T10:46:33.993Z,36.97
2022-12-18T10:51:38.577Z,33.72
2022-12-18T10:56:41.112Z,35.40
2022-12-18T11:01:58.203Z,37.40
2022-12-18T11:07:03.911Z,35.60
2022-12-18T11:12:29.434Z,33.15
2022-12-18T11:17:36.725Z,33.53
2022-12-18T11:22:39.475Z,33.45
2022-12-18T11:27:41.722Z,30.20
2022-12-18T11:32:48.205Z,28.40
2022-12-18T11:38:00.450Z,32.17
2022-12-18T11:43:17.948Z,26.83
2022-12-18T11:49:12.696Z,28.80
2022-12-18T11:54:17.071Z,26.43
2022-12-18T11:59:41.243Z,31.25
2022-12-18T12:04:46.990Z,26.52
2022-12-18T12:10:13.185Z,29.23
2022-12-18T12:15:37.262Z,28.20
2022-12-18T12:20:47.033Z,29.60
2022-12-18T12:26:00.422Z,29.90
2022-12-18T12:31:21.074Z,26.83
2022-12-18T12:36:23.038Z,30.42
2022-12-18T12:41:47.522Z,27.63
2022-12-18T12:46:52.908Z,31.00
2022-12-18T12:52:04.679Z,31.87
2022-12-18T12:57:34.656Z,32.40
2022-12-18T13:02:46.863Z,31.20
2022-12-18T13:07:59.290Z,31.23
2022-12-18T13:13:04.385Z,33.47
2022-12-18T13:18:10.327Z,30.80
2022-12-18T13:23:24.627Z,32.72
2022-12-18T13:28:46.023Z,30.83
2022-12-18T13:34:24.568Z,32.97
2022-12-18T13:39:23.828Z,31.60
2022-12-18T13:44:41.638Z,37.63
2022-12-18T13:49:45.340Z,29.92
2022-12-18T13:54:56.197Z,32.23
2022-12-18T13:59:59.639Z,29.25
2022-12-18T14:05:01.674Z,35.58
2022-12-18T14:10:26.079Z,35.47
2022-12-18T14:15:26.148Z,38.35
2022-12-18T14:20:30.916Z,33.15
2022-12-18T14:25:34.074Z,34.90
2022-12-18T14:30:39.779Z,36.20
2022-12-18T14:35:44.460Z,35.10
2022-12-18T14:40:46.702Z,37.53
2022-12-18T14:45:50.512Z,42.33
2022-12-18T14:51:14.910Z,38.45
2022-12-18T14:56:26.567Z,39.45
2022-12-18T15:01:36.113Z,41.57
2022-12-18T15:06:41.022Z,41.63
2022-12-18T15:11:42.966Z,37.50
2022-12-18T15:16:46.331Z,40.10
2022-12-18T15:21:48.534Z,40.07
2022-12-18T15:26:50.638Z,45.85
2022-12-18T15:32:01.084Z,44.38
2022-12-18T15:37:03.194Z,46.27
2022-12-18T15:42:28.672Z,45.72
2022-12-18T15:47:30.866Z,39.13
2022-12-18T15:52:41.064Z,40.80
2022-12-18T15:57:43.096Z,37.08
2022-12-18T16:02:45.296Z,40.40
2022-12-18T16:07:47.661Z,41.67
2022-12-18T16:12:49.729Z,42.67
2022-12-18T16:17:52.909Z,36.30
2022-12-18T16:22:55.054Z,42.45
2022-12-18T16:27:57.793Z,39.50
2022-12-18T16:33:00.130Z,41.22
2022-12-18T16:38:02.221Z,40.10
2022-12-18T16:43:04.252Z,41.40
2022-12-18T16:48:06.601Z,36.47
2022-12-18T16:53:08.666Z,40.42
2022-12-18T16:58:11.147Z,40.47
2022-12-18T17:03:13.315Z,41.27
2022-12-18T17:08:15.506Z,39.05
2022-12-18T17:13:21.381Z,39.63
2022-12-18T17:18:26.934Z,37.50
2022-12-18T17:23:30.054Z,40.20
2022-12-18T17:28:32.073Z,37.95
2022-12-18T17:33:34.121Z,40.90
2022-12-18T17:38:36.850Z,38.92
2022-12-18T17:43:47.658Z,44.10
2022-12-18T17:53:52.370Z,43.43
2022-12-18T17:58:54.666Z,43.75
2022-12-18T18:03:56.846Z,49.90
2022-12-18T18:08:58.952Z,46.53
2022-12-18T18:14:01.818Z,41.33
2022-12-18T18:19:06.833Z,45.40
2022-12-18T18:24:10.428Z,39.53
2022-12-18T18:29:21.204Z,39.38
2022-12-18T18:34:26.559Z,37.70
2022-12-18T18:39:29.490Z,41.00
2022-12-18T18:44:31.764Z,48.33
2022-12-18T18:49:34.325Z,41.35
2022-12-18T18:54:36.453Z,42.28
2022-12-18T18:59:38.587Z,48.03
2022-12-18T19:04:42.715Z,54.95
2022-12-18T19:09:51.980Z,54.00
2022-12-18T19:14:54.820Z,58.80
2022-12-18T19:19:56.862Z,57.62
2022-12-18T19:24:58.983Z,67.03
2022-12-18T19:30:01.088Z,66.20
2022-12-18T19:35:03.189Z,62.73
2022-12-18T19:40:12.303Z,66.35
2022-12-18T19:45:14.905Z,69.15
2022-12-18T19:50:17.679Z,63.30
2022-12-18T19:55:19.829Z,65.47
2022-12-18T20:00:22.011Z,69.68
2022-12-18T20:05:25.358Z,66.00
2022-12-18T20:10:27.438Z,68.28
2022-12-18T20:15:29.468Z,65.10
2022-12-18T20:20:31.530Z,69.27
2022-12-18T20:25:33.708Z,78.90
2022-12-18T20:30:35.920Z,70.80
2022-12-18T20:35:38.021Z,68.72
2022-12-18T20:40:43.412Z,71.47
2022-12-18T20:45:45.595Z,74.97
2022-12-18T20:51:06.027Z,60.28
2022-12-18T20:56:21.196Z,61.57
2022-12-18T21:01:25.174Z,57.08
2022-12-18T21:06:27.397Z,65.15
2022-12-18T21:11:50.626Z,63.73
2022-12-18T21:16:52.729Z,67.80
2022-12-18T21:21:56.332Z,70.62
2022-12-18T21:26:58.376Z,67.00
2022-12-18T21:32:02.154Z,70.43
2022-12-18T21:37:04.537Z,71.95
2022-12-18T21:42:25.932Z,67.32
2022-12-18T21:47:28.060Z,72.97
2022-12-18T21:52:32.098Z,71.62
2022-12-18T21:57:34.441Z,70.80
2022-12-18T22:02:36.544Z,69.67
2022-12-18T22:07:38.802Z,69.10
2022-12-18T22:12:44.087Z,77.53
2022-12-18T22:17:47.554Z,74.80
2022-12-18T22:22:51.761Z,75.50
2022-12-18T22:28:12.216Z,74.05
2022-12-18T22:33:14.320Z,75.87
2022-12-18T22:38:17.569Z,72.20
2022-12-18T22:43:19.587Z,70.43
2022-12-18T22:48:21.807Z,74.37
2022-12-18T22:53:24.381Z,63.53
2022-12-18T22:58:26.467Z,63.40
2022-12-18T23:03:28.620Z,63.70
2022-12-18T23:08:30.727Z,69.50
2022-12-18T23:13:34.322Z,70.17
2022-12-18T23:18:37.083Z,68.20
2022-12-18T23:23:39.456Z,62.17
2022-12-18T23:28:41.788Z,61.17
2022-12-18T23:33:45.424Z,59.00
2022-12-18T23:38:49.722Z,60.58
2022-12-18T23:43:53.041Z,54.33
2022-12-18T23:48:55.173Z,46.07
2022-12-18T23:54:00.992Z,57.33
2022-12-18T23:59:03.106Z,53.78
